createdAt,value
2022-09-23T00:02:16.658Z,12.50
2022-09-23T00:04:45.124Z,12.50
2022-09-23T00:07:13.433Z,12.50
2022-09-23T00:09:43.115Z,12.50
2022-09-23T00:12:11.423Z,12.50
2022-09-23T00:14:40.400Z,12.50
2022-09-23T00:17:08.810Z,12.50
2022-09-23T00:19:39.567Z,12.40
2022-09-23T00:22:08.878Z,12.40
2022-09-23T00:24:37.180Z,12.30
2022-09-23T00:27:07.038Z,12.30
2022-09-23T00:29:37.005Z,12.20
2022-09-23T00:32:05.978Z,12.00
2022-09-23T00:34:34.529Z,12.00
2022-09-23T00:37:02.804Z,11.90
2022-09-23T00:39:31.315Z,11.90
2022-09-23T00:41:59.715Z,11.90
2022-09-23T00:44:51.133Z,11.90
2022-09-23T00:47:23.564Z,11.80
2022-09-23T00:50:00.239Z,11.80
2022-09-23T00:52:29.148Z,11.80
2022-09-23T00:55:01.106Z,11.80
2022-09-23T00:57:31.284Z,11.80
2022-09-23T01:00:01.172Z,11.80
2022-09-23T01:02:29.681Z,11.70
2022-09-23T01:04:58.192Z,11.70
2022-09-23T01:07:26.732Z,11.60
2022-09-23T01:09:55.187Z,11.60
2022-09-23T01:12:37.155Z,11.50
2022-09-23T01:15:14.242Z,11.50
2022-09-23T01:17:51.231Z,11.50
2022-09-23T01:20:56.360Z,11.50
2022-09-23T01:23:51.887Z,11.60
2022-09-23T01:26:47.797Z,11.50
2022-09-23T01:29:33.381Z,11.40
2022-09-23T01:32:10.549Z,11.40
2022-09-23T01:34:47.817Z,11.40
2022-09-23T01:37:24.819Z,11.30
2022-09-23T01:40:01.790Z,11.30
2022-09-23T01:42:36.396Z,11.30
2022-09-23T01:45:12.688Z,11.30
2022-09-23T01:47:48.751Z,11.30
2022-09-23T01:50:34.436Z,11.30
2022-09-23T01:53:07.131Z,11.30
2022-09-23T01:55:40.423Z,11.30
2022-09-23T01:58:13.202Z,11.30
2022-09-23T02:00:55.855Z,11.20
2022-09-23T02:03:29.427Z,11.20
2022-09-23T02:06:02.795Z,11.10
2022-09-23T02:08:35.950Z,11.10
2022-09-23T02:11:08.077Z,11.00
2022-09-23T02:13:42.684Z,11.00
2022-09-23T02:16:16.184Z,10.90
2022-09-23T02:18:52.686Z,10.90
2022-09-23T02:21:25.181Z,10.80
2022-09-23T02:23:59.520Z,10.80
2022-09-23T02:26:31.760Z,10.80
2022-09-23T02:29:09.140Z,10.80
2022-09-23T02:31:41.873Z,10.80
2022-09-23T02:34:33.733Z,10.90
2022-09-23T02:37:11.690Z,10.90
2022-09-23T02:39:51.780Z,10.90
2022-09-23T02:42:24.346Z,10.90
2022-09-23T02:44:52.814Z,10.90
2022-09-23T02:47:26.007Z,10.90
2022-09-23T02:49:56.433Z,10.90
2022-09-23T02:52:25.473Z,10.90
2022-09-23T02:54:54.163Z,10.90
2022-09-23T02:57:22.734Z,10.90
2022-09-23T02:59:51.715Z,10.90
2022-09-23T03:02:51.860Z,10.90
2022-09-23T03:05:25.819Z,11.00
2022-09-23T03:08:12.703Z,10.90
2022-09-23T03:10:53.078Z,10.90
2022-09-23T03:13:31.309Z,10.90
2022-09-23T03:16:11.305Z,10.80
2022-09-23T03:18:43.812Z,10.80
2022-09-23T03:21:20.864Z,10.80
2022-09-23T03:23:50.159Z,10.80
2022-09-23T03:26:22.826Z,10.80
2022-09-23T03:28:51.939Z,10.70
2022-09-23T03:31:20.472Z,10.70
2022-09-23T03:33:52.422Z,10.60
2022-09-23T03:36:45.456Z,10.60
2022-09-23T03:39:21.664Z,10.60
2022-09-23T03:41:53.932Z,10.70
2022-09-23T03:44:23.435Z,10.70
2022-09-23T03:46:51.884Z,10.70
2022-09-23T03:49:27.423Z,10.70
2022-09-23T03:51:57.148Z,10.60
2022-09-23T03:54:25.932Z,10.60
2022-09-23T03:56:57.643Z,10.60
2022-09-23T03:59:26.246Z,10.50
2022-09-23T04:01:55.608Z,10.60
2022-09-23T04:04:24.024Z,10.60
2022-09-23T04:06:52.373Z,10.60
2022-09-23T04:09:22.106Z,10.60
2022-09-23T04:11:50.971Z,10.50
2022-09-23T04:14:20.546Z,10.50
2022-09-23T04:16:49.741Z,10.40
2022-09-23T04:19:18.573Z,10.40
2022-09-23T04:21:47.540Z,10.30
2022-09-23T04:24:16.630Z,10.30
2022-09-23T04:26:46.486Z,10.30
2022-09-23T04:29:14.905Z,10.30
2022-09-23T04:31:43.240Z,10.30
2022-09-23T04:34:12.025Z,10.30
2022-09-23T04:36:40.855Z,10.30
2022-09-23T04:39:09.260Z,10.30
2022-09-23T04:41:37.952Z,10.30
2022-09-23T04:44:07.759Z,10.30
2022-09-23T04:46:36.179Z,10.30
2022-09-23T04:49:04.512Z,10.30
2022-09-23T04:51:32.838Z,10.30
2022-09-23T04:54:01.122Z,10.30
2022-09-23T04:56:32.592Z,10.30
2022-09-23T04:59:01.934Z,10.30
2022-09-23T05:01:34.458Z,10.20
2022-09-23T05:04:05.421Z,10.20
2022-09-23T05:06:35.542Z,10.20
2022-09-23T05:09:07.300Z,10.20
2022-09-23T05:11:36.378Z,10.20
2022-09-23T05:14:04.984Z,10.20
2022-09-23T05:16:35.911Z,10.20
2022-09-23T05:19:04.577Z,10.20
2022-09-23T05:21:32.847Z,10.20
2022-09-23T05:24:01.147Z,10.10
2022-09-23T05:26:31.928Z,10.10
2022-09-23T05:29:01.195Z,10.20
2022-09-23T05:31:31.342Z,10.10
2022-09-23T05:34:02.612Z,10.10
2022-09-23T05:36:37.613Z,10.20
2022-09-23T05:39:07.723Z,10.20
2022-09-23T05:41:36.602Z,10.20
2022-09-23T05:44:05.300Z,10.30
2022-09-23T05:46:34.144Z,10.30
2022-09-23T05:49:05.948Z,10.40
2022-09-23T05:51:35.507Z,10.40
2022-09-23T05:54:05.428Z,10.50
2022-09-23T05:56:35.769Z,10.50
2022-09-23T05:59:05.131Z,10.60
2022-09-23T06:01:35.618Z,10.60
2022-09-23T06:04:08.230Z,10.70
2022-09-23T06:06:38.871Z,10.80
2022-09-23T06:09:08.225Z,11.00
2022-09-23T06:11:37.282Z,11.10
2022-09-23T06:14:05.794Z,11.70
2022-09-23T06:16:36.645Z,12.80
2022-09-23T06:19:07.196Z,13.90
2022-09-23T06:21:38.371Z,14.80
2022-09-23T06:24:08.028Z,15.70
2022-09-23T06:26:37.820Z,16.40
2022-09-23T06:29:11.552Z,17.00
2022-09-23T06:31:42.117Z,17.80
2022-09-23T06:34:14.858Z,18.30
2022-09-23T06:36:45.758Z,18.90
2022-09-23T06:39:15.886Z,19.30
2022-09-23T06:41:45.232Z,19.20
2022-09-23T06:44:14.522Z,19.50
2022-09-23T06:46:42.875Z,20.00
2022-09-23T06:49:13.368Z,20.20
2022-09-23T06:51:42.317Z,20.70
2022-09-23T06:54:11.178Z,20.00
2022-09-23T06:56:40.038Z,20.20
2022-09-23T06:59:10.742Z,20.50
2022-09-23T07:01:39.349Z,21.30
2022-09-23T07:04:08.376Z,22.00
2022-09-23T07:06:38.260Z,22.70
2022-09-23T07:09:08.130Z,23.40
2022-09-23T07:11:37.684Z,23.70
2022-09-23T07:14:06.348Z,23.80
2022-09-23T07:16:34.771Z,23.70
2022-09-23T07:19:03.073Z,23.80
2022-09-23T07:21:31.453Z,24.10
2022-09-23T07:24:01.228Z,24.50
2022-09-23T07:26:29.595Z,24.90
2022-09-23T07:29:04.898Z,24.90
2022-09-23T07:31:39.746Z,25.00
2022-09-23T07:34:09.960Z,25.30
2022-09-23T07:36:40.732Z,25.70
2022-09-23T07:39:13.277Z,25.70
2022-09-23T07:41:44.368Z,25.70
2022-09-23T07:44:13.425Z,25.70
2022-09-23T07:46:41.812Z,26.10
2022-09-23T07:49:10.624Z,26.70
2022-09-23T07:51:40.852Z,26.90
2022-09-23T07:54:13.224Z,27.20
2022-09-23T07:56:42.488Z,27.30
2022-09-23T07:59:15.386Z,27.70
2022-09-23T08:01:46.201Z,27.60
2022-09-23T08:04:17.717Z,27.40
2022-09-23T08:06:48.470Z,27.30
2022-09-23T08:09:20.497Z,27.20
2022-09-23T08:11:50.712Z,26.90
2022-09-23T08:14:19.688Z,26.60
2022-09-23T08:16:48.204Z,25.60
2022-09-23T08:19:17.044Z,26.00
2022-09-23T08:21:47.553Z,26.90
2022-09-23T08:24:18.799Z,27.90
2022-09-23T08:26:48.475Z,27.10
2022-09-23T08:29:18.707Z,26.70
2022-09-23T08:31:47.184Z,26.90
2022-09-23T08:34:15.504Z,26.60
2022-09-23T08:36:43.952Z,26.20
2022-09-23T08:39:15.192Z,25.30
2022-09-23T08:41:59.237Z,24.60
2022-09-23T08:44:33.497Z,24.20
2022-09-23T08:47:10.375Z,23.80
2022-09-23T08:49:47.368Z,23.50
2022-09-23T08:52:21.108Z,23.30
2022-09-23T08:54:54.559Z,23.10
2022-09-23T08:57:37.262Z,23.00
2022-09-23T09:00:06.623Z,22.70
2022-09-23T09:02:36.795Z,22.60
2022-09-23T09:05:10.102Z,22.30
2022-09-23T09:07:42.118Z,21.60
2022-09-23T09:10:18.749Z,21.40
2022-09-23T09:12:51.027Z,21.50
2022-09-23T09:15:24.826Z,21.30
2022-09-23T09:18:02.414Z,21.00
2022-09-23T09:20:49.677Z,21.40
2022-09-23T09:23:23.343Z,21.40
2022-09-23T09:25:53.648Z,21.30
2022-09-23T09:28:27.959Z,21.30
2022-09-23T09:31:01.053Z,21.30
2022-09-23T09:33:37.471Z,20.90
2022-09-23T09:36:15.853Z,21.00
2022-09-23T09:38:44.166Z,21.10
2022-09-23T09:41:17.012Z,21.10
2022-09-23T09:43:57.702Z,20.80
2022-09-23T09:46:54.587Z,20.60
2022-09-23T09:49:30.958Z,20.50
2022-09-23T09:52:22.643Z,20.70
2022-09-23T09:54:52.054Z,20.80
2022-09-23T09:57:35.167Z,20.90
2022-09-23T10:00:35.524Z,21.00
2022-09-23T10:03:09.181Z,21.10
2022-09-23T10:05:50.205Z,21.20
2022-09-23T10:08:26.804Z,21.30
2022-09-23T10:11:02.439Z,21.10
2022-09-23T10:13:31.679Z,20.90
2022-09-23T10:16:04.001Z,20.90
2022-09-23T10:18:35.912Z,21.00
2022-09-23T10:21:09.139Z,21.00
2022-09-23T10:23:42.157Z,21.10
2022-09-23T10:26:12.343Z,20.90
2022-09-23T10:28:50.276Z,20.80
2022-09-23T10:31:25.809Z,20.80
2022-09-23T10:33:57.321Z,20.80
2022-09-23T10:36:26.004Z,20.50
2022-09-23T10:39:18.701Z,20.40
2022-09-23T10:42:21.168Z,20.60
2022-09-23T10:45:19.860Z,20.70
2022-09-23T10:47:59.468Z,20.60
2022-09-23T10:50:38.975Z,20.60
2022-09-23T10:53:19.348Z,20.60
2022-09-23T10:56:12.162Z,20.60
2022-09-23T10:59:10.344Z,20.50
2022-09-23T11:01:44.932Z,20.40
2022-09-23T11:04:47.995Z,20.50
2022-09-23T11:07:26.654Z,20.60
2022-09-23T11:10:35.375Z,20.70
2022-09-23T11:13:19.685Z,20.80
2022-09-23T11:15:58.585Z,20.70
2022-09-23T11:18:48.016Z,20.80
2022-09-23T11:21:39.017Z,21.00
2022-09-23T11:24:28.066Z,21.00
2022-09-23T11:27:03.880Z,21.10
2022-09-23T11:29:55.192Z,21.10
2022-09-23T11:32:48.250Z,21.00
2022-09-23T11:35:21.349Z,20.90
2022-09-23T11:37:56.714Z,20.90
2022-09-23T11:40:32.115Z,21.10
2022-09-23T11:43:07.243Z,21.00
2022-09-23T11:45:40.905Z,21.10
2022-09-23T11:48:15.133Z,21.20
2022-09-23T11:50:49.092Z,21.20
2022-09-23T11:53:24.664Z,21.20
2022-09-23T11:55:58.693Z,21.30
2022-09-23T11:58:30.549Z,21.40
2022-09-23T12:01:03.951Z,21.40
2022-09-23T12:03:44.625Z,21.30
2022-09-23T12:06:17.064Z,21.30
2022-09-23T12:08:47.259Z,21.30
2022-09-23T12:11:31.383Z,21.40
2022-09-23T12:14:10.997Z,21.40
2022-09-23T12:16:59.666Z,21.40
2022-09-23T12:19:43.859Z,21.60
2022-09-23T12:22:29.501Z,21.70
2022-09-23T12:25:10.396Z,21.50
2022-09-23T12:27:43.665Z,21.60
2022-09-23T12:30:27.796Z,21.60
2022-09-23T12:33:09.471Z,21.50
2022-09-23T12:35:42.576Z,21.50
2022-09-23T12:38:16.028Z,21.60
2022-09-23T12:40:45.787Z,21.60
2022-09-23T12:43:19.316Z,21.60
2022-09-23T12:45:48.126Z,21.60
2022-09-23T12:48:45.902Z,21.70
2022-09-23T12:51:22.125Z,21.70
2022-09-23T12:53:55.794Z,21.80
2022-09-23T12:56:50.564Z,21.80
2022-09-23T12:59:26.304Z,21.80
2022-09-23T13:01:55.678Z,21.80
2022-09-23T13:04:50.746Z,22.00
2022-09-23T13:07:23.783Z,22.10
2022-09-23T13:09:57.178Z,22.00
2022-09-23T13:12:32.154Z,22.00
2022-09-23T13:15:06.433Z,22.10
2022-09-23T13:17:38.303Z,22.10
2022-09-23T13:20:29.176Z,22.00
2022-09-23T13:23:26.789Z,21.90
2022-09-23T13:25:58.106Z,22.10
2022-09-23T13:28:33.538Z,22.00
2022-09-23T13:31:06.468Z,22.00
2022-09-23T13:33:42.477Z,21.90
2022-09-23T13:36:13.835Z,22.10
2022-09-23T13:38:43.686Z,22.20
2022-09-23T13:41:16.230Z,22.20
2022-09-23T13:43:47.548Z,22.20
2022-09-23T13:46:20.345Z,22.10
2022-09-23T13:48:51.882Z,22.10
2022-09-23T13:51:24.620Z,22.10
2022-09-23T13:53:56.214Z,22.10
2022-09-23T13:56:25.821Z,22.20
2022-09-23T13:58:55.847Z,22.10
2022-09-23T14:01:31.423Z,22.20
2022-09-23T14:04:00.306Z,22.40
2022-09-23T14:06:30.656Z,22.40
2022-09-23T14:09:02.527Z,22.30
2022-09-23T14:11:33.813Z,22.30
2022-09-23T14:14:07.234Z,22.30
2022-09-23T14:16:39.346Z,22.40
2022-09-23T14:19:08.923Z,22.40
2022-09-23T14:21:39.051Z,22.40
2022-09-23T14:24:20.938Z,22.40
2022-09-23T14:26:53.445Z,22.40
2022-09-23T14:29:25.538Z,22.40
2022-09-23T14:31:57.751Z,22.30
2022-09-23T14:34:47.100Z,22.20
2022-09-23T14:37:41.393Z,22.30
2022-09-23T14:40:15.562Z,22.30
2022-09-23T14:42:46.476Z,22.30
2022-09-23T14:45:18.557Z,22.30
2022-09-23T14:47:50.359Z,22.30
2022-09-23T14:50:40.678Z,22.20
2022-09-23T14:53:35.250Z,22.20
2022-09-23T14:56:14.651Z,22.10
2022-09-23T14:58:51.038Z,22.00
2022-09-23T15:01:27.843Z,22.00
2022-09-23T15:03:58.353Z,22.00
2022-09-23T15:06:27.325Z,22.10
2022-09-23T15:08:57.027Z,22.10
2022-09-23T15:11:26.755Z,22.10
2022-09-23T15:13:56.230Z,22.10
2022-09-23T15:16:27.747Z,22.10
2022-09-23T15:18:57.932Z,22.00
2022-09-23T15:21:32.292Z,22.00
2022-09-23T15:24:00.683Z,22.00
2022-09-23T15:26:47.635Z,21.90
2022-09-23T15:29:16.055Z,21.90
2022-09-23T15:31:44.360Z,22.00
2022-09-23T15:34:12.732Z,21.90
2022-09-23T15:36:41.270Z,21.90
2022-09-23T15:39:12.213Z,21.80
2022-09-23T15:41:43.281Z,21.90
2022-09-23T15:44:15.218Z,21.80
2022-09-23T15:46:47.589Z,21.70
2022-09-23T15:49:23.142Z,21.60
2022-09-23T15:51:52.142Z,21.60
2022-09-23T15:54:20.452Z,21.50
2022-09-23T15:56:50.112Z,21.50
2022-09-23T15:59:19.195Z,21.50
2022-09-23T16:01:47.676Z,21.50
2022-09-23T16:04:16.982Z,21.50
2022-09-23T16:06:48.397Z,21.50
2022-09-23T16:09:16.920Z,21.40
2022-09-23T16:11:47.234Z,21.40
2022-09-23T16:14:18.031Z,21.40
2022-09-23T16:16:47.997Z,21.30
2022-09-23T16:19:17.766Z,21.20
2022-09-23T16:21:46.183Z,21.20
2022-09-23T16:24:17.940Z,21.20
2022-09-23T16:26:48.642Z,21.00
2022-09-23T16:29:18.320Z,21.00
2022-09-23T16:31:46.658Z,20.90
2022-09-23T16:34:15.001Z,20.90
2022-09-23T16:36:44.943Z,20.90
2022-09-23T16:39:14.619Z,20.80
2022-09-23T16:41:43.511Z,20.80
2022-09-23T16:44:12.605Z,20.70
2022-09-23T16:46:43.278Z,20.70
2022-09-23T16:49:12.504Z,20.60
2022-09-23T16:51:41.292Z,20.50
2022-09-23T16:54:11.959Z,20.50
2022-09-23T16:56:45.066Z,20.40
2022-09-23T16:59:13.964Z,20.30
2022-09-23T17:02:01.795Z,20.30
2022-09-23T17:04:30.255Z,20.20
2022-09-23T17:06:59.201Z,20.20
2022-09-23T17:09:30.270Z,20.10
2022-09-23T17:12:06.113Z,20.10
2022-09-23T17:14:34.640Z,19.90
2022-09-23T17:17:04.320Z,20.00
2022-09-23T17:19:34.073Z,19.90
2022-09-23T17:22:02.637Z,19.80
2022-09-23T17:24:30.993Z,19.70
2022-09-23T17:26:59.395Z,19.60
2022-09-23T17:29:29.091Z,19.50
2022-09-23T17:31:58.055Z,19.50
2022-09-23T17:34:28.928Z,19.40
2022-09-23T17:36:57.178Z,19.30
2022-09-23T17:39:25.467Z,19.20
2022-09-23T17:41:58.488Z,19.20
2022-09-23T17:44:27.004Z,19.10
2022-09-23T17:46:55.360Z,19.10
2022-09-23T17:49:24.250Z,19.00
2022-09-23T17:51:54.014Z,19.00
2022-09-23T17:54:22.805Z,18.90
2022-09-23T17:56:50.977Z,18.90
2022-09-23T17:59:19.203Z,18.80
2022-09-23T18:01:47.578Z,18.80
2022-09-23T18:04:15.962Z,18.80
2022-09-23T18:06:44.238Z,18.70
2022-09-23T18:09:14.152Z,18.70
2022-09-23T18:11:43.728Z,18.60
2022-09-23T18:14:15.350Z,18.60
2022-09-23T18:16:45.684Z,18.50
2022-09-23T18:19:16.024Z,18.50
2022-09-23T18:21:46.150Z,18.50
2022-09-23T18:24:32.848Z,18.40
2022-09-23T18:27:02.477Z,18.40
2022-09-23T18:29:31.613Z,18.40
2022-09-23T18:32:00.290Z,18.50
2022-09-23T18:34:28.795Z,18.40
2022-09-23T18:36:57.255Z,18.40
2022-09-23T18:39:26.908Z,18.40
2022-09-23T18:41:55.565Z,18.30
2022-09-23T18:44:24.450Z,18.30
2022-09-23T18:46:53.100Z,18.20
2022-09-23T18:49:38.689Z,18.20
2022-09-23T18:52:07.033Z,18.20
2022-09-23T18:54:36.755Z,18.10
2022-09-23T18:57:05.269Z,18.10
2022-09-23T18:59:33.590Z,18.00
2022-09-23T19:02:02.093Z,18.00
2022-09-23T19:04:30.502Z,18.00
2022-09-23T19:06:58.950Z,17.90
2022-09-23T19:09:27.300Z,17.80
2022-09-23T19:11:57.715Z,17.80
2022-09-23T19:14:26.710Z,17.70
2022-09-23T19:16:55.144Z,17.70
2022-09-23T19:19:23.523Z,17.60
2022-09-23T19:21:51.931Z,17.50
2022-09-23T19:24:21.049Z,17.50
2022-09-23T19:26:50.457Z,17.50
2022-09-23T19:29:21.945Z,17.50
2022-09-23T19:31:51.070Z,17.50
2022-09-23T19:34:23.678Z,17.50
2022-09-23T19:36:52.838Z,17.40
2022-09-23T19:39:22.649Z,17.30
2022-09-23T19:41:51.411Z,17.30
2022-09-23T19:44:21.425Z,17.20
2022-09-23T19:46:55.892Z,17.20
2022-09-23T19:49:25.423Z,17.10
2022-09-23T19:51:55.822Z,17.10
2022-09-23T19:54:27.139Z,17.00
2022-09-23T19:56:56.149Z,17.00
2022-09-23T19:59:26.470Z,16.90
2022-09-23T20:01:55.533Z,16.90
2022-09-23T20:04:23.865Z,16.80
2022-09-23T20:06:52.169Z,16.70
2022-09-23T20:09:20.731Z,16.60
2022-09-23T20:11:49.681Z,16.50
2022-09-23T20:14:19.320Z,16.40
2022-09-23T20:16:49.009Z,16.20
2022-09-23T20:19:17.671Z,16.10
2022-09-23T20:22:06.129Z,16.00
2022-09-23T20:24:34.481Z,15.90
2022-09-23T20:27:10.890Z,15.80
2022-09-23T20:29:39.384Z,15.80
2022-09-23T20:32:09.379Z,15.70
2022-09-23T20:34:37.773Z,15.60
2022-09-23T20:37:06.388Z,15.50
2022-09-23T20:39:34.724Z,15.50
2022-09-23T20:42:03.392Z,15.40
2022-09-23T20:44:32.092Z,15.40
2022-09-23T20:47:00.504Z,15.30
2022-09-23T20:49:34.180Z,15.30
2022-09-23T20:52:03.019Z,15.20
2022-09-23T20:54:32.049Z,15.20
2022-09-23T20:57:01.427Z,15.10
2022-09-23T20:59:29.655Z,15.10
2022-09-23T21:01:58.660Z,15.00
2022-09-23T21:04:27.358Z,15.00
2022-09-23T21:06:58.506Z,15.00
2022-09-23T21:09:28.271Z,15.00
2022-09-23T21:11:57.025Z,15.00
2022-09-23T21:14:25.724Z,14.90
2022-09-23T21:16:54.726Z,14.90
2022-09-23T21:19:24.409Z,14.90
2022-09-23T21:21:52.740Z,14.90
2022-09-23T21:25:00.385Z,14.90
2022-09-23T21:27:11.586Z,14.80
2022-09-23T21:29:40.211Z,14.80
2022-09-23T21:32:08.538Z,14.70
2022-09-23T21:34:36.858Z,14.70
2022-09-23T21:37:05.933Z,14.70
2022-09-23T21:39:35.709Z,14.70
2022-09-23T21:42:04.434Z,14.70
2022-09-23T21:44:32.757Z,14.70
2022-09-23T21:47:01.194Z,14.70
2022-09-23T21:49:29.572Z,14.70
2022-09-23T21:52:00.634Z,14.70
2022-09-23T21:54:29.677Z,14.70
2022-09-23T21:57:00.452Z,14.60
2022-09-23T21:59:29.158Z,14.60
2022-09-23T22:01:57.523Z,14.60
2022-09-23T22:04:25.940Z,14.60
2022-09-23T22:06:54.726Z,14.60
2022-09-23T22:09:23.156Z,14.50
2022-09-23T22:12:08.587Z,14.50
2022-09-23T22:14:39.125Z,14.50
2022-09-23T22:17:10.556Z,14.50
2022-09-23T22:19:44.211Z,14.40
2022-09-23T22:22:15.594Z,14.40
2022-09-23T22:24:44.855Z,14.30
2022-09-23T22:27:16.515Z,14.30
2022-09-23T22:30:03.493Z,14.30
2022-09-23T22:32:46.192Z,14.30
2022-09-23T22:35:16.712Z,14.30
2022-09-23T22:37:45.705Z,14.40
2022-09-23T22:40:16.268Z,14.40
2022-09-23T22:42:45.129Z,14.30
2022-09-23T22:45:14.929Z,14.30
2022-09-23T22:47:45.521Z,14.30
2022-09-23T22:50:15.216Z,14.30
2022-09-23T22:52:44.045Z,14.30
2022-09-23T22:55:12.881Z,14.30
2022-09-23T22:57:41.169Z,14.30
2022-09-23T23:00:12.250Z,14.20
2022-09-23T23:02:42.517Z,14.10
2022-09-23T23:05:11.109Z,14.00
2022-09-23T23:07:39.356Z,14.00
2022-09-23T23:10:10.162Z,13.90
2022-09-23T23:12:39.547Z,13.90
2022-09-23T23:15:10.570Z,13.90
2022-09-23T23:17:40.529Z,13.80
2022-09-23T23:20:10.862Z,13.80
2022-09-23T23:22:39.127Z,13.70
2022-09-23T23:25:08.258Z,13.70
2022-09-23T23:27:36.668Z,13.70
2022-09-23T23:30:05.463Z,13.70
2022-09-23T23:32:33.724Z,13.70
2022-09-23T23:35:02.046Z,13.80
2022-09-23T23:37:31.694Z,13.80
2022-09-23T23:40:00.087Z,13.70
2022-09-23T23:42:28.321Z,13.70
2022-09-23T23:44:56.672Z,13.70
2022-09-23T23:47:26.400Z,13.60
2022-09-23T23:49:54.677Z,13.50
2022-09-23T23:52:22.956Z,13.40
2022-09-23T23:54:52.705Z,13.40
2022-09-23T23:57:21.001Z,13.50
2022-09-23T23:59:49.558Z,13.50
